createdAt,value
2023-01-21T00:03:13.385Z,16.10
2023-01-21T00:09:35.746Z,16.10
2023-01-21T00:15:44.541Z,16.60
2023-01-21T00:22:06.153Z,16.90
2023-01-21T00:28:21.626Z,15.30
2023-01-21T00:35:12.941Z,15.30
2023-01-21T00:41:44.769Z,14.60
2023-01-21T00:47:13.964Z,15.10
2023-01-21T00:52:27.389Z,17.30
2023-01-21T00:59:12.438Z,16.80
2023-01-21T01:04:49.660Z,14.70
2023-01-21T01:09:56.700Z,15.20
2023-01-21T01:15:25.133Z,15.20
2023-01-21T01:21:19.378Z,15.60
2023-01-21T01:27:21.052Z,16.30
2023-01-21T01:33:02.267Z,17.50
2023-01-21T01:39:26.125Z,15.80
2023-01-21T01:45:56.823Z,16.00
2023-01-21T01:52:25.033Z,15.00
2023-01-21T01:59:10.724Z,17.20
2023-01-21T02:04:56.001Z,14.30
2023-01-21T02:10:39.842Z,16.10
2023-01-21T02:17:00.119Z,14.60
2023-01-21T02:24:05.703Z,14.50
2023-01-21T02:30:21.482Z,13.00
2023-01-21T02:36:12.789Z,12.90
2023-01-21T02:43:08.131Z,11.60
2023-01-21T02:48:55.004Z,11.90
2023-01-21T02:54:55.719Z,10.90
2023-01-21T03:01:09.811Z,11.30
2023-01-21T03:07:30.843Z,11.70
2023-01-21T03:14:10.464Z,10.80
2023-01-21T03:20:49.740Z,10.50
2023-01-21T03:26:17.368Z,10.20
2023-01-21T03:32:23.288Z,10.30
2023-01-21T03:38:38.629Z,9.20
2023-01-21T03:44:12.534Z,9.50
2023-01-21T03:50:08.213Z,9.00
2023-01-21T03:56:42.392Z,7.80
2023-01-21T04:03:11.166Z,8.90
2023-01-21T04:10:00.701Z,7.80
2023-01-21T04:16:00.254Z,8.10
2023-01-21T04:22:37.562Z,8.30
2023-01-21T04:29:07.556Z,8.80
2023-01-21T04:36:08.250Z,6.50
2023-01-21T04:42:28.856Z,8.10
2023-01-21T04:48:06.950Z,7.60
2023-01-21T04:53:47.112Z,9.10
2023-01-21T05:00:05.145Z,8.50
2023-01-21T05:05:38.101Z,7.40
2023-01-21T05:11:49.000Z,8.70
2023-01-21T05:18:35.810Z,6.90
2023-01-21T05:25:15.248Z,7.80
2023-01-21T05:30:31.944Z,6.90
2023-01-21T05:36:54.152Z,8.50
2023-01-21T05:42:25.044Z,8.10
2023-01-21T05:48:11.259Z,9.00
2023-01-21T05:53:36.888Z,8.40
2023-01-21T05:59:08.757Z,8.40
2023-01-21T06:05:18.594Z,8.50
2023-01-21T06:11:26.350Z,9.50
2023-01-21T06:17:06.121Z,8.70
2023-01-21T06:22:33.044Z,10.90
2023-01-21T06:28:00.844Z,11.20
2023-01-21T06:33:19.294Z,9.00
2023-01-21T06:38:29.171Z,9.40
2023-01-21T06:44:01.749Z,8.20
2023-01-21T06:49:10.526Z,9.20
2023-01-21T06:55:09.926Z,10.20
2023-01-21T07:01:07.057Z,7.70
2023-01-21T07:07:24.538Z,8.00
2023-01-21T07:13:40.729Z,7.10
2023-01-21T07:19:10.358Z,8.30
2023-01-21T07:24:37.713Z,8.40
2023-01-21T07:30:25.673Z,7.90
2023-01-21T07:35:41.324Z,8.30
2023-01-21T07:42:13.908Z,7.50
2023-01-21T07:47:51.316Z,7.70
2023-01-21T07:53:36.414Z,8.40
2023-01-21T07:58:47.260Z,9.70
2023-01-21T08:03:57.815Z,8.80
2023-01-21T08:09:01.281Z,8.10
2023-01-21T08:14:10.863Z,8.70
2023-01-21T08:19:43.920Z,8.30
2023-01-21T08:25:18.551Z,8.70
2023-01-21T08:30:24.311Z,8.00
2023-01-21T08:35:35.764Z,9.10
2023-01-21T08:40:58.288Z,7.30
2023-01-21T08:46:02.612Z,8.90
2023-01-21T08:51:07.609Z,7.40
2023-01-21T08:56:36.716Z,7.70
2023-01-21T09:01:53.919Z,8.60
2023-01-21T09:07:02.237Z,8.50
2023-01-21T09:12:08.974Z,7.60
2023-01-21T09:17:22.246Z,8.30
2023-01-21T09:22:29.664Z,6.80
2023-01-21T09:27:44.944Z,8.00
2023-01-21T09:32:57.117Z,8.10
2023-01-21T09:38:04.911Z,8.50
2023-01-21T09:43:38.089Z,7.70
2023-01-21T09:48:51.488Z,7.50
2023-01-21T09:53:59.369Z,7.60
2023-01-21T09:59:14.253Z,6.80
2023-01-21T10:04:30.964Z,7.60
2023-01-21T10:09:53.839Z,7.50
2023-01-21T10:15:43.197Z,8.20
2023-01-21T10:20:55.905Z,8.00
2023-01-21T10:26:07.697Z,7.70
2023-01-21T10:31:54.291Z,7.50
2023-01-21T10:37:31.181Z,7.40
2023-01-21T10:43:11.692Z,7.70
2023-01-21T10:48:22.628Z,7.90
2023-01-21T10:53:47.734Z,7.90
2023-01-21T10:59:52.063Z,8.30
2023-01-21T11:05:19.511Z,8.70
2023-01-21T11:10:34.097Z,8.60
2023-01-21T11:16:03.652Z,9.40
2023-01-21T11:22:45.691Z,9.10
2023-01-21T11:28:29.038Z,8.00
2023-01-21T11:34:03.431Z,8.90
2023-01-21T11:40:11.470Z,7.40
2023-01-21T11:45:59.746Z,7.70
2023-01-21T11:51:10.347Z,7.50
2023-01-21T11:56:26.047Z,8.60
2023-01-21T12:01:56.526Z,7.50
2023-01-21T12:07:35.898Z,8.30
2023-01-21T12:13:10.995Z,9.40
2023-01-21T12:19:18.918Z,10.10
2023-01-21T12:24:42.892Z,10.10
2023-01-21T12:30:21.042Z,9.50
2023-01-21T12:35:54.470Z,9.10
2023-01-21T12:41:11.287Z,9.50
2023-01-21T12:47:02.816Z,10.40
2023-01-21T12:52:22.393Z,10.10
2023-01-21T12:57:43.147Z,9.80
2023-01-21T13:03:17.910Z,9.10
2023-01-21T13:08:48.938Z,9.60
2023-01-21T13:14:40.035Z,10.20
2023-01-21T13:20:46.829Z,10.70
2023-01-21T13:26:23.692Z,11.10
2023-01-21T13:31:41.538Z,11.00
2023-01-21T13:38:22.802Z,12.50
2023-01-21T13:45:00.476Z,13.70
2023-01-21T13:51:05.268Z,10.80
2023-01-21T13:56:51.063Z,13.10
2023-01-21T14:02:02.612Z,12.70
2023-01-21T14:07:18.948Z,13.80
2023-01-21T14:13:12.631Z,14.30
2023-01-21T14:18:32.934Z,13.80
2023-01-21T14:24:58.224Z,13.50
2023-01-21T14:30:26.571Z,13.30
2023-01-21T14:36:13.138Z,13.80
2023-01-21T14:42:25.469Z,14.50
2023-01-21T14:48:53.470Z,16.00
2023-01-21T14:54:01.705Z,17.80
2023-01-21T14:59:59.511Z,19.00
2023-01-21T15:06:01.121Z,19.40
2023-01-21T15:12:09.354Z,20.40
2023-01-21T15:18:35.408Z,20.80
2023-01-21T15:23:46.143Z,25.90
2023-01-21T15:29:14.369Z,25.00
2023-01-21T15:35:03.830Z,22.10
2023-01-21T15:41:23.125Z,21.50
2023-01-21T15:46:45.810Z,21.10
2023-01-21T15:52:23.558Z,21.20
2023-01-21T15:58:21.199Z,21.20
2023-01-21T16:04:26.317Z,22.30
2023-01-21T16:09:52.217Z,24.90
2023-01-21T16:15:04.709Z,23.50
2023-01-21T16:20:33.916Z,24.00
2023-01-21T16:26:47.255Z,24.10
2023-01-21T16:32:33.198Z,22.90
2023-01-21T16:38:06.987Z,21.40
2023-01-21T16:43:34.341Z,21.30
2023-01-21T16:48:56.825Z,22.60
2023-01-21T16:54:46.745Z,25.60
2023-01-21T16:59:48.257Z,26.40
2023-01-21T17:05:05.502Z,24.90
2023-01-21T17:10:18.253Z,26.60
2023-01-21T17:15:58.181Z,26.50
2023-01-21T17:21:04.865Z,25.70
2023-01-21T17:26:43.955Z,21.70
2023-01-21T17:31:55.335Z,24.10
2023-01-21T17:37:00.117Z,26.60
2023-01-21T17:42:23.892Z,24.20
2023-01-21T17:52:52.984Z,29.80
2023-01-21T17:58:04.093Z,28.70
2023-01-21T18:03:06.477Z,27.70
2023-01-21T18:08:16.270Z,29.20
2023-01-21T18:13:44.233Z,29.10
2023-01-21T18:18:50.157Z,32.40
2023-01-21T18:23:58.135Z,43.40
2023-01-21T18:29:08.497Z,51.20
2023-01-21T18:34:18.573Z,66.50
2023-01-21T18:39:22.449Z,77.20
2023-01-21T18:44:29.497Z,66.40
2023-01-21T18:49:35.049Z,73.80
2023-01-21T18:54:42.241Z,71.90
2023-01-21T18:59:51.883Z,72.80
2023-01-21T19:05:16.846Z,77.40
2023-01-21T19:10:49.774Z,76.50
2023-01-21T19:16:04.875Z,85.30
2023-01-21T19:21:46.629Z,87.20
2023-01-21T19:26:56.811Z,81.30
2023-01-21T19:32:32.831Z,75.60
2023-01-21T19:37:44.022Z,71.20
2023-01-21T19:43:12.724Z,60.90
2023-01-21T19:48:42.047Z,51.60
2023-01-21T19:54:14.955Z,53.80
2023-01-21T20:00:00.223Z,56.50
2023-01-21T20:05:02.271Z,57.60
2023-01-21T20:10:16.695Z,55.50
2023-01-21T20:15:45.447Z,63.20
2023-01-21T20:20:47.539Z,71.50
2023-01-21T20:25:52.931Z,80.90
2023-01-21T20:30:57.817Z,81.10
2023-01-21T20:36:03.370Z,80.90
2023-01-21T20:41:49.939Z,81.30
2023-01-21T20:47:05.397Z,103.20
2023-01-21T20:52:35.666Z,94.50
2023-01-21T20:58:29.010Z,102.90
2023-01-21T21:03:30.586Z,97.00
2023-01-21T21:09:32.684Z,86.30
2023-01-21T21:14:59.873Z,82.90
2023-01-21T21:20:04.880Z,77.90
2023-01-21T21:25:32.195Z,81.10
2023-01-21T21:30:34.041Z,76.30
2023-01-21T21:35:39.929Z,75.80
2023-01-21T21:40:53.107Z,70.70
2023-01-21T21:46:13.311Z,71.00
2023-01-21T21:51:17.978Z,76.70
2023-01-21T21:56:23.375Z,74.30
2023-01-21T22:01:30.685Z,78.00
2023-01-21T22:06:32.917Z,76.50
2023-01-21T22:11:34.778Z,78.60
2023-01-21T22:16:51.324Z,79.70
2023-01-21T22:21:56.322Z,80.60
2023-01-21T22:27:07.614Z,82.60
2023-01-21T22:32:17.606Z,78.90
2023-01-21T22:37:22.967Z,85.20
2023-01-21T22:42:24.539Z,88.40
2023-01-21T22:47:31.429Z,97.40
2023-01-21T22:52:35.625Z,86.70
2023-01-21T22:57:46.785Z,106.10
2023-01-21T23:02:58.089Z,105.50
2023-01-21T23:08:08.628Z,104.10
2023-01-21T23:13:14.549Z,109.50
2023-01-21T23:18:28.296Z,108.00
2023-01-21T23:23:41.770Z,123.20
2023-01-21T23:28:57.659Z,106.30
2023-01-21T23:34:02.933Z,128.30
2023-01-21T23:39:04.897Z,119.40
2023-01-21T23:44:06.531Z,110.40
2023-01-21T23:49:14.194Z,111.50
2023-01-21T23:54:18.347Z,113.80
2023-01-21T23:59:19.757Z,114.00
